• Join FlightAware (Why Join?)
  • Login
  • US Flag 
06:10PM EDT


 

Airport Tracker/Info


-or-


 

Live Flight TrackerFlight Track Log ✈ SWA407 ✈ 12-May-2013 ✈ KSFO - KSAN

Flight Track Log - Related Links

Times and Time Zones

All times are in EDT time to prevent confusion due to time zone crossing. See the SWA407 flight status page for this flight to view local times or setup timezone preferences in your user account.

Time Position Orientation Groundspeed Altitude Reporting Facility
EDT Latitude Longitude Course Direction KTS MPH feet Rate Location/Type
11:11PM 37.6333 -122.3667 360° North 152 175 900  Level Northern Cal TRACON
11:12PM 37.6833 -122.3667 360° North 187 215 2,700 2,700 Climbing Northern Cal TRACON
11:14PM 37.6072 -122.4889 232° Southwest 253 291 9,600 2,880 Climbing Oakland Center
11:16PM 37.5247 -122.4986 185° South 288 331 12,200 2,700 Climbing Oakland Center
11:17PM 37.4281 -122.5114 186° South 336 387 15,200 2,940 Climbing Oakland Center
11:18PM 37.3269 -122.5242 186° South 357 411 18,300 2,940 Climbing Oakland Center
11:19PM 37.2242 -122.5375 186° South 368 423 21,200 2,640 Climbing Oakland Center
11:20PM 37.1186 -122.5300 177° South 398 458 23,700 2,340 Climbing Oakland Center
11:21PM 37.0264 -122.4489 145° Southeast 402 463 26,000 2,100 Climbing Oakland Center
11:22PM 36.9311 -122.3650 145° Southeast 412 474 28,000 1,800 Climbing Oakland Center
11:23PM 36.8336 -122.2756 144° Southeast 429 494 29,700 1,860 Climbing Oakland Center
11:24PM 36.7117 -122.1672 145° Southeast 444 511 31,900 1,980 Climbing Oakland Center
11:25PM 36.6117 -122.0758 144° Southeast 447 514 33,800 1,560 Climbing Oakland Center
11:26PM 36.5108 -121.9867 145° Southeast 446 513 35,200 1,620 Climbing Oakland Center
11:27PM 36.4097 -121.8953 144° Southeast 449 517 37,200 1,740 Climbing Oakland Center
11:28PM 36.3117 -121.8097 145° Southeast 437 503 38,800 840 Climbing Oakland Center
11:29PM 36.2222 -121.7308 145° Southeast 434 499 39,000 60 Climbing Oakland Center
11:30PM 36.1211 -121.6019 134° Southeast 433 498 39,000  Level Oakland Center
11:31PM 36.0453 -121.4847 129° Southeast 438 504 39,000  Level Oakland Center
11:32PM 35.9675 -121.3692 130° Southeast 438 504 39,000  Level Oakland Center
11:33PM 35.8900 -121.2531 129° Southeast 439 505 39,000  Level Oakland Center
11:34PM 35.8125 -121.1369 129° Southeast 440 506 39,000  Level Oakland Center
11:35PM 35.7356 -121.0219 129° Southeast 438 504 39,000  Level Oakland Center
11:36PM 35.6583 -120.9078 130° Southeast 435 501 39,000  Level Oakland Center
11:37PM 35.5803 -120.7925 130° Southeast 439 505 39,000  Level Oakland Center
11:38PM 35.5022 -120.6772 130° Southeast 441 507 39,000  Level Oakland Center
11:39PM 35.4239 -120.5631 130° Southeast 441 507 39,000  Level Oakland Center
11:40PM 35.3431 -120.4450 130° Southeast 442 509 39,000  Level Oakland Center
11:41PM 35.2644 -120.3261 129° Southeast 446 513 39,000  Level Oakland Center
11:42PM 35.1772 -120.1994 130° Southeast 442 509 39,000  Level Oakland Center
11:43PM 35.0992 -120.0864 130° Southeast 438 504 39,000  Level Oakland Center
11:44PM 34.9861 -120.0239 156° South 449 517 39,000  Level Oakland Center
11:45PM 34.8644 -119.9992 171° South 445 512 39,000  Level Oakland Center
11:46PM 34.7558 -119.9392 156° South 436 502 39,000  Level Oakland Center
11:47PM 34.6897 -119.8181 124° Southeast 432 497 39,000  Level Oakland Center
11:48PM 34.6114 -119.6722 123° Southeast 430 495 39,000  Level Oakland Center
11:49PM 34.5903 -119.6356 125° Southeast 427 491 39,000  Level Los Angeles Center
11:50PM 34.5131 -119.4911 123° Southeast 427 491 39,000  Level Los Angeles Center
11:51PM 34.4472 -119.3719 124° Southeast 424 488 39,000  Level Los Angeles Center
11:52PM 34.3819 -119.2517 123° Southeast 428 493 39,000  Level Los Angeles Center
11:53PM 34.3172 -119.1336 124° Southeast 425 489 39,000  Level Los Angeles Center
11:54PM 34.2514 -119.0136 124° Southeast 429 494 39,000 -300 Level Los Angeles Center
11:55PM 34.1744 -118.8725 123° Southeast 421 484 38,500 -720 Descending Los Angeles Center
11:56PM 34.1106 -118.7531 123° Southeast 422 486 37,600 -960 Descending Los Angeles Center
11:57PM 34.0433 -118.6322 124° Southeast 430 495 36,600 -960 Descending Los Angeles Center
11:58PM 33.9781 -118.5131 123° Southeast 427 491 35,700 -960 Descending Los Angeles Center
11:59PM 33.9081 -118.3981 126° Southeast 428 493 34,700 -960 Descending Los Angeles Center
12:00AM 33.8306 -118.3042 135° Southeast 445 512 33,800 -2,040 Descending Los Angeles Center
12:01AM 33.7325 -118.1708 131° Southeast 463 533 30,600 -2,340 Descending Los Angeles Center
12:02AM 33.6478 -118.0667 134° Southeast 446 513 29,000 -1,860 Descending Los Angeles Center
12:03AM 33.5664 -117.9644 134° Southeast 430 495 26,800 -2,160 Descending Los Angeles Center
12:04AM 33.4894 -117.8678 134° Southeast 410 472 24,600 -2,340 Descending Los Angeles Center
12:04AM 33.4500 -117.8167 133° Southeast 381 438 23,500 -2,340 Descending Southern California TRACON
12:05AM 33.3833 -117.7333 134° Southeast 377 434 21,400 -1,920 Descending Southern California TRACON
12:06AM 33.3439 -117.6847 134° Southeast 381 438 20,400 -2,100 Descending Los Angeles Center
12:07AM 33.2622 -117.5808 133° Southeast 365 420 17,900 -2,280 Descending Los Angeles Center
12:07AM 33.2333 -117.5667 158° South 361 415 17,300 -2,220 Descending Southern California TRACON
12:08AM 33.1667 -117.4833 134° Southeast 355 409 15,000 -2,340 Descending Southern California TRACON
12:09AM 33.1089 -117.4411 149° Southeast 349 402 13,300 -2,160 Descending Los Angeles Center
12:10AM 33.0269 -117.3775 147° Southeast 350 403 11,300 -2,040 Descending Los Angeles Center
12:10AM 33.0000 -117.3667 161° South 340 391 10,700 -1,200 Descending Southern California TRACON
12:11AM 32.9333 -117.3000 140° Southeast 303 349 9,800 -1,260 Descending Southern California TRACON
12:12AM 32.8667 -117.2500 148° Southeast 297 342 8,200 -1,320 Descending Southern California TRACON
12:13AM 32.8317 -117.2153 140° Southeast 295 339 7,500 -1,440 Descending Los Angeles Center
12:14AM 32.7833 -117.0833 114° Southeast 271 312 5,400 -1,200 Descending Southern California TRACON
12:15AM 32.7500 -117.0167 121° Southeast 227 261 4,900 -660 Descending Southern California TRACON
12:16AM 32.7167 -116.9667 128° Southeast 207 238 4,100 -960 Descending Southern California TRACON
12:17AM 32.6833 -117.0167 232° Southwest 191 220 3,000 -1,080 Descending Southern California TRACON
12:18AM 32.7000 -117.0667 292° West 169 194 2,000 -900 Descending Southern California TRACON
12:19AM 32.7167 -117.1167 292° West 145 167 1,200 -780 Descending Southern California TRACON
12:20AM 32.7236 -117.1514 283° West 144 166 500 -600 Descending Los Angeles Center
12:21AM 32.7364 -117.2000 287° West 139 160 100 -420 Descending Los Angeles Center
12:23AM 32.7333 -117.1833 90° East  Level FlightAware Approximate
12:30AM 32.7336 -117.1897 90° East  Level Estimated